Terminal Aerodrome Forecast
Issued by NWS Jackson, MS

Home | Current Version | Previous Version | Text Only | Print | Product List | Glossary On
Versions: 1 2 3 4 5 6 7 8 9 10 11 12 13 14 15 16 17 18 19 20
000
FTUS44 KJAN 011100
TAFGWO
TAF
KGWO 011120Z 0112/0212 18003KT 3SM BR SCT007 BKN011
     FM011430 19010KT P6SM SCT040
     FM020100 17006KT P6SM FEW250
     FM020800 19006KT 6SM BR SCT250=

USA.gov is the U.S. government's official web portal to all federal, state and local government web resources and services.